Portada
METAR-TAF:

METAR-TAF

Aeropuertos :

Bartlesville, Oklahoma, Estados Unidos

latitud: 36-46-06N, longitud: 096-01-34W, altitud: 217 m

Observación

El informe se hizo hace 48 minutos, a las 23:53 UTC
Viento 5 kt del oeste
Temperatura 15°C
Humedad 29%
Presión 1023 hPa
Visibilidad: 16.1 km
Cielo despejado

METAR: KBVO 282353Z AUTO 28005KT 10SM CLR 15/M03 A3022 RMK AO2 SLP231 T01501033 10178 20133 53002

Hora: 18:41 (00:41 UTC)

Pronóstico

El informe se hizo hace 1 hora y 21 minutos, a las 23:20 UTC
Pronóstico válido del 29 a las 00 UTC al 29 a las 24 UTC
Viento 11 kt del oeste-noroeste
Visibilidad: 10 km
Cielo despejado
A partir de las 29 a las 1000 UTC
Viento 8 kt del sur
Visibilidad: 10 km
Cielo despejado
A partir de las 29 a las 1900 UTC
Viento 12 kt del sur con ráfagas de 22 kt
Visibilidad: 10 km
Cielo despejado

TAF: KBVO 282320Z 2900/2924 29011KT P6SM SKC FM291000 17008KT P6SM SKC FM291900 18012G22KT P6SM SKC

Observaciones y pronósticos meteorológicos de más de 4000 aeropuertos (mensajes METAR y TAF).

Los puntos amarillos y rojos representan las estaciones disponibles.

Ponga el ratón en el punto deseado para ver el nombre de la estación.

Haga clic para ver las observaciones y los pronósticos meteorológicos.

Para cambiar el mapa : haga clic en los botones verdes con una cruz de color negro para hacer un zoom, en el botón verde con un guión para alejar o en las flechas verdes para mapas adyacentes.


METAR-TAF: